sensor_id;sensor_type;location;lat;lon;timestamp;P1;durP1;ratioP1;P2;durP2;ratioP2
57663;SDS011;43493;53.098;6.064;2023-08-17T00:00:34;7.77;;;3.93;;
57663;SDS011;43493;53.098;6.064;2023-08-17T00:03:00;9.57;;;3.60;;
57663;SDS011;43493;53.098;6.064;2023-08-17T00:05:25;9.50;;;3.50;;
57663;SDS011;43493;53.098;6.064;2023-08-17T00:07:52;7.33;;;3.17;;
57663;SDS011;43493;53.098;6.064;2023-08-17T00:10:18;9.13;;;3.50;;
57663;SDS011;43493;53.098;6.064;2023-08-17T00:12:43;9.70;;;3.70;;
57663;SDS011;43493;53.098;6.064;2023-08-17T00:15:09;7.47;;;3.40;;
57663;SDS011;43493;53.098;6.064;2023-08-17T00:17:35;7.57;;;3.13;;
57663;SDS011;43493;53.098;6.064;2023-08-17T00:20:01;9.47;;;3.30;;
57663;SDS011;43493;53.098;6.064;2023-08-17T00:22:30;10.53;;;3.67;;
57663;SDS011;43493;53.098;6.064;2023-08-17T00:24:55;8.10;;;3.60;;
57663;SDS011;43493;53.098;6.064;2023-08-17T00:27:21;8.10;;;3.57;;
57663;SDS011;43493;53.098;6.064;2023-08-17T00:29:47;8.57;;;3.40;;
57663;SDS011;43493;53.098;6.064;2023-08-17T00:32:13;7.90;;;3.97;;
57663;SDS011;43493;53.098;6.064;2023-08-17T00:34:39;8.13;;;3.57;;
57663;SDS011;43493;53.098;6.064;2023-08-17T00:37:04;5.50;;;3.27;;
57663;SDS011;43493;53.098;6.064;2023-08-17T00:39:30;7.23;;;3.30;;
57663;SDS011;43493;53.098;6.064;2023-08-17T00:41:56;7.43;;;3.37;;
57663;SDS011;43493;53.098;6.064;2023-08-17T00:44:21;9.57;;;3.80;;
57663;SDS011;43493;53.098;6.064;2023-08-17T00:46:47;8.47;;;3.70;;
57663;SDS011;43493;53.098;6.064;2023-08-17T00:49:13;8.60;;;3.53;;
57663;SDS011;43493;53.098;6.064;2023-08-17T00:51:39;10.47;;;4.07;;
57663;SDS011;43493;53.098;6.064;2023-08-17T00:54:04;7.30;;;2.90;;
57663;SDS011;43493;53.098;6.064;2023-08-17T00:56:30;8.13;;;2.97;;
57663;SDS011;43493;53.098;6.064;2023-08-17T00:58:56;6.67;;;3.20;;
57663;SDS011;43493;53.098;6.064;2023-08-17T01:01:22;8.07;;;3.17;;
57663;SDS011;43493;53.098;6.064;2023-08-17T01:03:48;5.83;;;2.53;;
57663;SDS011;43493;53.098;6.064;2023-08-17T01:06:14;6.83;;;3.10;;
57663;SDS011;43493;53.098;6.064;2023-08-17T01:08:40;10.43;;;4.33;;
57663;SDS011;43493;53.098;6.064;2023-08-17T01:11:13;6.83;;;3.30;;
57663;SDS011;43493;53.098;6.064;2023-08-17T01:16:33;6.97;;;3.47;;
57663;SDS011;43493;53.098;6.064;2023-08-17T01:19:04;5.85;;;2.80;;
57663;SDS011;43493;53.098;6.064;2023-08-17T01:21:38;8.23;;;3.20;;
57663;SDS011;43493;53.098;6.064;2023-08-17T01:24:10;7.10;;;3.07;;
57663;SDS011;43493;53.098;6.064;2023-08-17T01:26:37;9.77;;;3.10;;
57663;SDS011;43493;53.098;6.064;2023-08-17T01:29:03;6.37;;;2.90;;
57663;SDS011;43493;53.098;6.064;2023-08-17T01:31:34;8.60;;;2.80;;
57663;SDS011;43493;53.098;6.064;2023-08-17T01:34:07;6.93;;;3.07;;
57663;SDS011;43493;53.098;6.064;2023-08-17T01:36:40;10.13;;;3.83;;
57663;SDS011;43493;53.098;6.064;2023-08-17T01:39:10;6.67;;;3.00;;
57663;SDS011;43493;53.098;6.064;2023-08-17T01:41:37;4.50;;;2.70;;
57663;SDS011;43493;53.098;6.064;2023-08-17T01:44:03;8.60;;;3.00;;
57663;SDS011;43493;53.098;6.064;2023-08-17T01:46:30;7.43;;;3.27;;
57663;SDS011;43493;53.098;6.064;2023-08-17T01:48:59;10.13;;;3.10;;
57663;SDS011;43493;53.098;6.064;2023-08-17T01:51:25;11.33;;;3.87;;
57663;SDS011;43493;53.098;6.064;2023-08-17T01:53:51;8.17;;;3.63;;
57663;SDS011;43493;53.098;6.064;2023-08-17T01:56:17;8.77;;;3.13;;
57663;SDS011;43493;53.098;6.064;2023-08-17T01:58:43;6.80;;;3.40;;
57663;SDS011;43493;53.098;6.064;2023-08-17T02:01:08;7.30;;;3.30;;
57663;SDS011;43493;53.098;6.064;2023-08-17T02:03:34;7.60;;;3.30;;
57663;SDS011;43493;53.098;6.064;2023-08-17T02:06:00;7.87;;;3.10;;
57663;SDS011;43493;53.098;6.064;2023-08-17T02:08:26;6.70;;;3.10;;
57663;SDS011;43493;53.098;6.064;2023-08-17T02:10:52;8.53;;;3.90;;
57663;SDS011;43493;53.098;6.064;2023-08-17T02:13:18;12.23;;;3.83;;
57663;SDS011;43493;53.098;6.064;2023-08-17T02:15:44;9.50;;;3.83;;
57663;SDS011;43493;53.098;6.064;2023-08-17T02:18:11;6.03;;;2.87;;
57663;SDS011;43493;53.098;6.064;2023-08-17T02:20:37;8.30;;;3.63;;
57663;SDS011;43493;53.098;6.064;2023-08-17T02:23:03;8.40;;;3.60;;
57663;SDS011;43493;53.098;6.064;2023-08-17T02:25:29;6.37;;;3.20;;
57663;SDS011;43493;53.098;6.064;2023-08-17T02:28:00;7.80;;;3.40;;
57663;SDS011;43493;53.098;6.064;2023-08-17T02:30:27;11.77;;;3.60;;
57663;SDS011;43493;53.098;6.064;2023-08-17T02:32:53;9.93;;;3.63;;
57663;SDS011;43493;53.098;6.064;2023-08-17T02:35:18;10.43;;;3.70;;
57663;SDS011;43493;53.098;6.064;2023-08-17T02:37:44;8.20;;;3.73;;
57663;SDS011;43493;53.098;6.064;2023-08-17T02:40:10;8.37;;;3.90;;
57663;SDS011;43493;53.098;6.064;2023-08-17T02:42:36;7.80;;;3.60;;
57663;SDS011;43493;53.098;6.064;2023-08-17T02:45:02;8.93;;;4.23;;
57663;SDS011;43493;53.098;6.064;2023-08-17T02:47:27;8.80;;;4.20;;
57663;SDS011;43493;53.098;6.064;2023-08-17T02:49:53;10.10;;;3.70;;
57663;SDS011;43493;53.098;6.064;2023-08-17T02:52:19;8.60;;;3.87;;
57663;SDS011;43493;53.098;6.064;2023-08-17T02:54:45;12.40;;;4.07;;
57663;SDS011;43493;53.098;6.064;2023-08-17T02:57:11;9.80;;;3.97;;
57663;SDS011;43493;53.098;6.064;2023-08-17T02:59:37;7.63;;;3.67;;
57663;SDS011;43493;53.098;6.064;2023-08-17T03:02:03;7.77;;;3.57;;
57663;SDS011;43493;53.098;6.064;2023-08-17T03:04:29;11.37;;;4.00;;
57663;SDS011;43493;53.098;6.064;2023-08-17T03:06:54;7.57;;;3.90;;
57663;SDS011;43493;53.098;6.064;2023-08-17T03:09:20;9.27;;;4.10;;
57663;SDS011;43493;53.098;6.064;2023-08-17T03:11:46;11.03;;;3.77;;
57663;SDS011;43493;53.098;6.064;2023-08-17T03:14:11;7.80;;;3.70;;
57663;SDS011;43493;53.098;6.064;2023-08-17T03:16:37;11.00;;;3.53;;
57663;SDS011;43493;53.098;6.064;2023-08-17T03:19:03;7.93;;;3.27;;
57663;SDS011;43493;53.098;6.064;2023-08-17T03:21:29;9.23;;;3.83;;
57663;SDS011;43493;53.098;6.064;2023-08-17T03:23:54;8.37;;;3.80;;
57663;SDS011;43493;53.098;6.064;2023-08-17T03:26:20;7.47;;;3.87;;
57663;SDS011;43493;53.098;6.064;2023-08-17T03:28:46;10.53;;;4.77;;
57663;SDS011;43493;53.098;6.064;2023-08-17T03:31:11;9.80;;;3.90;;
57663;SDS011;43493;53.098;6.064;2023-08-17T03:33:37;10.23;;;3.90;;
57663;SDS011;43493;53.098;6.064;2023-08-17T03:36:03;8.37;;;3.30;;
57663;SDS011;43493;53.098;6.064;2023-08-17T03:38:29;7.97;;;4.50;;
57663;SDS011;43493;53.098;6.064;2023-08-17T03:40:55;9.73;;;3.87;;
57663;SDS011;43493;53.098;6.064;2023-08-17T03:43:20;6.60;;;3.80;;
57663;SDS011;43493;53.098;6.064;2023-08-17T03:45:46;9.73;;;3.80;;
57663;SDS011;43493;53.098;6.064;2023-08-17T03:48:12;7.60;;;3.70;;
57663;SDS011;43493;53.098;6.064;2023-08-17T03:50:38;8.37;;;4.00;;
57663;SDS011;43493;53.098;6.064;2023-08-17T03:53:03;11.13;;;3.70;;
57663;SDS011;43493;53.098;6.064;2023-08-17T03:55:29;9.53;;;3.90;;
57663;SDS011;43493;53.098;6.064;2023-08-17T03:57:55;11.03;;;3.80;;
57663;SDS011;43493;53.098;6.064;2023-08-17T04:00:21;10.13;;;4.10;;
57663;SDS011;43493;53.098;6.064;2023-08-17T04:02:46;10.17;;;3.60;;
57663;SDS011;43493;53.098;6.064;2023-08-17T04:05:12;6.17;;;3.13;;
57663;SDS011;43493;53.098;6.064;2023-08-17T04:07:38;10.20;;;3.80;;
57663;SDS011;43493;53.098;6.064;2023-08-17T04:10:07;5.50;;;3.47;;
57663;SDS011;43493;53.098;6.064;2023-08-17T04:12:33;9.83;;;3.53;;
57663;SDS011;43493;53.098;6.064;2023-08-17T04:14:59;9.53;;;3.80;;
57663;SDS011;43493;53.098;6.064;2023-08-17T04:17:25;9.43;;;3.83;;
57663;SDS011;43493;53.098;6.064;2023-08-17T04:19:51;9.90;;;3.57;;
57663;SDS011;43493;53.098;6.064;2023-08-17T04:22:17;8.67;;;4.33;;
57663;SDS011;43493;53.098;6.064;2023-08-17T04:24:43;8.30;;;4.03;;
57663;SDS011;43493;53.098;6.064;2023-08-17T04:27:08;6.57;;;3.17;;
57663;SDS011;43493;53.098;6.064;2023-08-17T04:29:34;11.53;;;4.87;;
57663;SDS011;43493;53.098;6.064;2023-08-17T04:32:01;6.97;;;3.63;;
57663;SDS011;43493;53.098;6.064;2023-08-17T04:34:27;7.87;;;4.27;;
57663;SDS011;43493;53.098;6.064;2023-08-17T04:36:52;11.13;;;4.00;;
57663;SDS011;43493;53.098;6.064;2023-08-17T04:39:18;8.97;;;3.97;;
57663;SDS011;43493;53.098;6.064;2023-08-17T04:41:44;8.70;;;4.27;;
57663;SDS011;43493;53.098;6.064;2023-08-17T04:44:09;10.57;;;3.90;;
57663;SDS011;43493;53.098;6.064;2023-08-17T04:46:35;9.13;;;3.97;;
57663;SDS011;43493;53.098;6.064;2023-08-17T04:49:01;8.40;;;3.80;;
57663;SDS011;43493;53.098;6.064;2023-08-17T04:51:27;8.83;;;4.13;;
57663;SDS011;43493;53.098;6.064;2023-08-17T04:53:53;8.67;;;4.07;;
57663;SDS011;43493;53.098;6.064;2023-08-17T04:56:18;14.50;;;3.83;;
57663;SDS011;43493;53.098;6.064;2023-08-17T04:58:44;7.20;;;3.80;;
57663;SDS011;43493;53.098;6.064;2023-08-17T05:01:10;8.20;;;4.40;;
57663;SDS011;43493;53.098;6.064;2023-08-17T05:03:36;9.43;;;4.63;;
57663;SDS011;43493;53.098;6.064;2023-08-17T05:06:01;11.67;;;4.40;;
57663;SDS011;43493;53.098;6.064;2023-08-17T05:08:28;8.37;;;3.87;;
57663;SDS011;43493;53.098;6.064;2023-08-17T05:10:54;8.00;;;3.37;;
57663;SDS011;43493;53.098;6.064;2023-08-17T05:13:20;9.30;;;4.07;;
57663;SDS011;43493;53.098;6.064;2023-08-17T05:15:46;7.27;;;3.60;;
57663;SDS011;43493;53.098;6.064;2023-08-17T05:18:11;7.27;;;3.30;;
57663;SDS011;43493;53.098;6.064;2023-08-17T05:20:37;10.10;;;3.33;;
57663;SDS011;43493;53.098;6.064;2023-08-17T05:23:03;8.60;;;3.73;;
57663;SDS011;43493;53.098;6.064;2023-08-17T05:25:29;6.60;;;3.17;;
57663;SDS011;43493;53.098;6.064;2023-08-17T05:27:55;9.43;;;3.60;;
57663;SDS011;43493;53.098;6.064;2023-08-17T05:30:20;6.23;;;3.07;;
57663;SDS011;43493;53.098;6.064;2023-08-17T05:32:46;5.97;;;2.90;;
57663;SDS011;43493;53.098;6.064;2023-08-17T05:35:12;6.10;;;2.80;;
57663;SDS011;43493;53.098;6.064;2023-08-17T05:37:38;8.60;;;3.63;;
57663;SDS011;43493;53.098;6.064;2023-08-17T05:40:04;8.27;;;2.40;;
57663;SDS011;43493;53.098;6.064;2023-08-17T05:42:30;5.40;;;2.60;;
57663;SDS011;43493;53.098;6.064;2023-08-17T05:44:56;6.83;;;2.80;;
57663;SDS011;43493;53.098;6.064;2023-08-17T05:47:22;5.00;;;2.40;;
57663;SDS011;43493;53.098;6.064;2023-08-17T05:49:47;8.53;;;2.40;;
57663;SDS011;43493;53.098;6.064;2023-08-17T05:52:13;5.73;;;2.27;;
57663;SDS011;43493;53.098;6.064;2023-08-17T05:54:39;5.27;;;2.33;;
57663;SDS011;43493;53.098;6.064;2023-08-17T05:57:04;6.83;;;2.47;;
57663;SDS011;43493;53.098;6.064;2023-08-17T05:59:30;8.07;;;2.70;;
57663;SDS011;43493;53.098;6.064;2023-08-17T06:01:56;8.77;;;2.40;;
57663;SDS011;43493;53.098;6.064;2023-08-17T06:04:21;6.57;;;2.03;;
57663;SDS011;43493;53.098;6.064;2023-08-17T06:06:47;5.33;;;2.10;;
57663;SDS011;43493;53.098;6.064;2023-08-17T06:09:13;6.90;;;2.00;;
57663;SDS011;43493;53.098;6.064;2023-08-17T06:11:39;6.30;;;1.87;;
57663;SDS011;43493;53.098;6.064;2023-08-17T06:14:05;8.43;;;1.83;;
57663;SDS011;43493;53.098;6.064;2023-08-17T06:16:31;5.70;;;1.70;;
57663;SDS011;43493;53.098;6.064;2023-08-17T06:18:57;5.57;;;2.30;;
57663;SDS011;43493;53.098;6.064;2023-08-17T06:21:23;5.77;;;1.80;;
57663;SDS011;43493;53.098;6.064;2023-08-17T06:23:49;5.93;;;1.70;;
57663;SDS011;43493;53.098;6.064;2023-08-17T06:26:15;6.50;;;1.67;;
57663;SDS011;43493;53.098;6.064;2023-08-17T06:28:40;4.10;;;1.60;;
57663;SDS011;43493;53.098;6.064;2023-08-17T06:31:06;6.33;;;1.73;;
57663;SDS011;43493;53.098;6.064;2023-08-17T06:33:32;4.53;;;1.63;;
57663;SDS011;43493;53.098;6.064;2023-08-17T06:35:58;5.73;;;1.87;;
57663;SDS011;43493;53.098;6.064;2023-08-17T06:38:23;5.87;;;2.03;;
57663;SDS011;43493;53.098;6.064;2023-08-17T06:40:50;4.70;;;1.53;;
57663;SDS011;43493;53.098;6.064;2023-08-17T06:43:17;4.63;;;1.60;;
57663;SDS011;43493;53.098;6.064;2023-08-17T06:45:43;3.77;;;1.30;;
57663;SDS011;43493;53.098;6.064;2023-08-17T06:48:09;7.87;;;2.20;;
57663;SDS011;43493;53.098;6.064;2023-08-17T06:50:35;8.23;;;2.67;;
57663;SDS011;43493;53.098;6.064;2023-08-17T06:53:01;5.90;;;1.70;;
57663;SDS011;43493;53.098;6.064;2023-08-17T06:55:27;5.97;;;1.70;;
57663;SDS011;43493;53.098;6.064;2023-08-17T06:57:53;4.87;;;1.70;;
57663;SDS011;43493;53.098;6.064;2023-08-17T07:00:20;4.90;;;1.40;;
57663;SDS011;43493;53.098;6.064;2023-08-17T07:02:50;6.77;;;1.80;;
57663;SDS011;43493;53.098;6.064;2023-08-17T07:05:16;4.53;;;1.57;;
57663;SDS011;43493;53.098;6.064;2023-08-17T07:07:43;6.23;;;1.50;;
57663;SDS011;43493;53.098;6.064;2023-08-17T07:10:09;6.30;;;1.83;;
57663;SDS011;43493;53.098;6.064;2023-08-17T07:12:36;5.47;;;1.63;;
57663;SDS011;43493;53.098;6.064;2023-08-17T07:15:02;7.23;;;2.03;;
57663;SDS011;43493;53.098;6.064;2023-08-17T07:17:29;4.80;;;1.57;;
57663;SDS011;43493;53.098;6.064;2023-08-17T07:19:55;5.37;;;1.57;;
57663;SDS011;43493;53.098;6.064;2023-08-17T07:22:21;6.97;;;1.83;;
57663;SDS011;43493;53.098;6.064;2023-08-17T07:24:46;7.70;;;1.97;;
57663;SDS011;43493;53.098;6.064;2023-08-17T07:27:12;7.90;;;2.17;;
57663;SDS011;43493;53.098;6.064;2023-08-17T07:29:38;4.60;;;1.40;;
57663;SDS011;43493;53.098;6.064;2023-08-17T07:32:04;4.23;;;1.50;;
57663;SDS011;43493;53.098;6.064;2023-08-17T07:34:30;5.40;;;1.40;;
57663;SDS011;43493;53.098;6.064;2023-08-17T07:36:56;6.47;;;1.70;;
57663;SDS011;43493;53.098;6.064;2023-08-17T07:39:22;5.63;;;1.60;;
57663;SDS011;43493;53.098;6.064;2023-08-17T07:41:48;5.83;;;1.80;;
57663;SDS011;43493;53.098;6.064;2023-08-17T07:44:14;3.73;;;1.37;;
57663;SDS011;43493;53.098;6.064;2023-08-17T07:46:40;3.80;;;1.33;;
57663;SDS011;43493;53.098;6.064;2023-08-17T07:49:05;8.87;;;1.43;;
57663;SDS011;43493;53.098;6.064;2023-08-17T07:51:31;6.00;;;1.53;;
57663;SDS011;43493;53.098;6.064;2023-08-17T07:53:59;6.33;;;1.60;;
57663;SDS011;43493;53.098;6.064;2023-08-17T07:56:25;5.07;;;1.70;;
57663;SDS011;43493;53.098;6.064;2023-08-17T07:58:53;5.97;;;2.37;;
57663;SDS011;43493;53.098;6.064;2023-08-17T08:01:19;3.23;;;1.30;;
57663;SDS011;43493;53.098;6.064;2023-08-17T08:03:44;6.10;;;1.70;;
57663;SDS011;43493;53.098;6.064;2023-08-17T08:06:10;4.97;;;1.50;;
57663;SDS011;43493;53.098;6.064;2023-08-17T08:08:37;6.13;;;1.50;;
57663;SDS011;43493;53.098;6.064;2023-08-17T08:11:02;4.53;;;1.70;;
57663;SDS011;43493;53.098;6.064;2023-08-17T08:13:29;6.17;;;1.70;;
57663;SDS011;43493;53.098;6.064;2023-08-17T08:15:55;5.07;;;1.60;;
57663;SDS011;43493;53.098;6.064;2023-08-17T08:18:22;2.80;;;1.33;;
57663;SDS011;43493;53.098;6.064;2023-08-17T08:20:48;3.73;;;1.40;;
57663;SDS011;43493;53.098;6.064;2023-08-17T08:23:14;5.03;;;1.30;;
57663;SDS011;43493;53.098;6.064;2023-08-17T08:25:39;3.27;;;1.50;;
57663;SDS011;43493;53.098;6.064;2023-08-17T08:28:05;5.53;;;1.47;;
57663;SDS011;43493;53.098;6.064;2023-08-17T08:30:31;4.80;;;1.40;;
57663;SDS011;43493;53.098;6.064;2023-08-17T08:32:57;4.93;;;1.50;;
57663;SDS011;43493;53.098;6.064;2023-08-17T08:35:24;7.40;;;1.70;;
57663;SDS011;43493;53.098;6.064;2023-08-17T08:37:50;4.77;;;1.63;;
57663;SDS011;43493;53.098;6.064;2023-08-17T08:40:16;3.63;;;1.27;;
57663;SDS011;43493;53.098;6.064;2023-08-17T08:42:49;4.83;;;1.93;;
57663;SDS011;43493;53.098;6.064;2023-08-17T08:45:14;6.07;;;1.60;;
57663;SDS011;43493;53.098;6.064;2023-08-17T08:47:40;3.40;;;1.50;;
57663;SDS011;43493;53.098;6.064;2023-08-17T08:50:09;4.70;;;1.50;;
57663;SDS011;43493;53.098;6.064;2023-08-17T08:52:42;4.17;;;1.50;;
57663;SDS011;43493;53.098;6.064;2023-08-17T08:55:15;5.57;;;1.30;;
57663;SDS011;43493;53.098;6.064;2023-08-17T08:57:43;5.63;;;1.60;;
57663;SDS011;43493;53.098;6.064;2023-08-17T09:00:10;4.47;;;1.60;;
57663;SDS011;43493;53.098;6.064;2023-08-17T09:02:37;5.80;;;1.57;;
57663;SDS011;43493;53.098;6.064;2023-08-17T09:05:05;8.33;;;1.70;;
57663;SDS011;43493;53.098;6.064;2023-08-17T09:07:33;3.70;;;1.40;;
57663;SDS011;43493;53.098;6.064;2023-08-17T09:10:01;6.10;;;1.63;;
57663;SDS011;43493;53.098;6.064;2023-08-17T09:12:28;3.87;;;1.67;;
57663;SDS011;43493;53.098;6.064;2023-08-17T09:14:55;4.27;;;1.57;;
57663;SDS011;43493;53.098;6.064;2023-08-17T09:17:24;6.00;;;1.93;;
57663;SDS011;43493;53.098;6.064;2023-08-17T09:19:51;5.50;;;1.53;;
57663;SDS011;43493;53.098;6.064;2023-08-17T09:25:07;3.97;;;1.53;;
57663;SDS011;43493;53.098;6.064;2023-08-17T09:27:34;9.17;;;1.63;;
57663;SDS011;43493;53.098;6.064;2023-08-17T09:30:04;4.53;;;1.50;;
57663;SDS011;43493;53.098;6.064;2023-08-17T09:32:32;4.63;;;1.50;;
57663;SDS011;43493;53.098;6.064;2023-08-17T09:35:02;5.13;;;1.50;;
57663;SDS011;43493;53.098;6.064;2023-08-17T09:37:29;5.70;;;1.60;;
57663;SDS011;43493;53.098;6.064;2023-08-17T09:39:56;4.80;;;1.60;;
57663;SDS011;43493;53.098;6.064;2023-08-17T09:42:22;5.43;;;1.60;;
57663;SDS011;43493;53.098;6.064;2023-08-17T09:44:54;5.23;;;1.80;;
57663;SDS011;43493;53.098;6.064;2023-08-17T09:47:21;6.10;;;1.90;;
57663;SDS011;43493;53.098;6.064;2023-08-17T09:49:48;3.07;;;1.33;;
57663;SDS011;43493;53.098;6.064;2023-08-17T09:52:14;5.87;;;1.87;;
57663;SDS011;43493;53.098;6.064;2023-08-17T09:54:40;8.70;;;1.80;;
57663;SDS011;43493;53.098;6.064;2023-08-17T09:57:07;7.23;;;2.33;;
57663;SDS011;43493;53.098;6.064;2023-08-17T09:59:33;4.97;;;1.40;;
57663;SDS011;43493;53.098;6.064;2023-08-17T10:01:59;5.47;;;1.70;;
57663;SDS011;43493;53.098;6.064;2023-08-17T10:04:25;6.50;;;2.00;;
57663;SDS011;43493;53.098;6.064;2023-08-17T10:07:00;5.17;;;1.50;;
57663;SDS011;43493;53.098;6.064;2023-08-17T10:09:34;5.83;;;1.80;;
57663;SDS011;43493;53.098;6.064;2023-08-17T10:12:06;6.27;;;1.67;;
57663;SDS011;43493;53.098;6.064;2023-08-17T10:14:36;5.20;;;2.00;;
57663;SDS011;43493;53.098;6.064;2023-08-17T10:17:07;4.73;;;1.53;;
57663;SDS011;43493;53.098;6.064;2023-08-17T10:19:49;6.30;;;1.73;;
57663;SDS011;43493;53.098;6.064;2023-08-17T10:22:18;7.37;;;2.30;;
57663;SDS011;43493;53.098;6.064;2023-08-17T10:24:51;5.95;;;1.95;;
57663;SDS011;43493;53.098;6.064;2023-08-17T10:27:19;7.53;;;1.93;;
57663;SDS011;43493;53.098;6.064;2023-08-17T10:29:46;5.20;;;1.60;;
57663;SDS011;43493;53.098;6.064;2023-08-17T10:32:12;8.40;;;1.90;;
57663;SDS011;43493;53.098;6.064;2023-08-17T10:34:39;6.43;;;1.80;;
57663;SDS011;43493;53.098;6.064;2023-08-17T10:37:06;4.53;;;1.50;;
57663;SDS011;43493;53.098;6.064;2023-08-17T10:39:32;5.30;;;1.50;;
57663;SDS011;43493;53.098;6.064;2023-08-17T10:41:59;6.43;;;2.37;;
57663;SDS011;43493;53.098;6.064;2023-08-17T10:47:25;6.20;;;2.03;;
57663;SDS011;43493;53.098;6.064;2023-08-17T10:50:02;9.87;;;2.10;;
57663;SDS011;43493;53.098;6.064;2023-08-17T10:52:36;5.23;;;2.00;;
57663;SDS011;43493;53.098;6.064;2023-08-17T10:55:06;4.20;;;1.80;;
57663;SDS011;43493;53.098;6.064;2023-08-17T11:02:52;4.47;;;1.60;;
57663;SDS011;43493;53.098;6.064;2023-08-17T11:05:38;4.33;;;1.70;;
57663;SDS011;43493;53.098;6.064;2023-08-17T11:11:14;9.45;;;2.17;;
57663;SDS011;43493;53.098;6.064;2023-08-17T11:13:40;6.43;;;1.87;;
57663;SDS011;43493;53.098;6.064;2023-08-17T11:16:10;6.50;;;1.90;;
57663;SDS011;43493;53.098;6.064;2023-08-17T11:18:37;5.50;;;1.80;;
57663;SDS011;43493;53.098;6.064;2023-08-17T11:21:03;6.17;;;1.93;;
57663;SDS011;43493;53.098;6.064;2023-08-17T11:23:31;4.73;;;1.80;;
57663;SDS011;43493;53.098;6.064;2023-08-17T11:25:58;7.03;;;2.00;;
57663;SDS011;43493;53.098;6.064;2023-08-17T11:28:29;6.13;;;2.00;;
57663;SDS011;43493;53.098;6.064;2023-08-17T11:33:31;7.67;;;1.90;;
57663;SDS011;43493;53.098;6.064;2023-08-17T11:35:58;5.07;;;2.00;;
57663;SDS011;43493;53.098;6.064;2023-08-17T11:38:26;7.43;;;1.80;;
57663;SDS011;43493;53.098;6.064;2023-08-17T11:40:55;6.63;;;2.67;;
57663;SDS011;43493;53.098;6.064;2023-08-17T11:43:23;6.40;;;2.00;;
57663;SDS011;43493;53.098;6.064;2023-08-17T11:45:49;8.93;;;2.23;;
57663;SDS011;43493;53.098;6.064;2023-08-17T11:48:14;4.37;;;1.53;;
57663;SDS011;43493;53.098;6.064;2023-08-17T11:50:42;5.50;;;1.97;;
57663;SDS011;43493;53.098;6.064;2023-08-17T11:53:08;6.43;;;2.30;;
57663;SDS011;43493;53.098;6.064;2023-08-17T11:55:34;7.13;;;2.70;;
57663;SDS011;43493;53.098;6.064;2023-08-17T11:58:01;7.80;;;1.87;;
57663;SDS011;43493;53.098;6.064;2023-08-17T12:00:27;5.53;;;1.83;;
57663;SDS011;43493;53.098;6.064;2023-08-17T12:03:01;6.87;;;2.47;;
57663;SDS011;43493;53.098;6.064;2023-08-17T12:05:28;5.03;;;1.77;;
57663;SDS011;43493;53.098;6.064;2023-08-17T12:07:56;7.20;;;2.40;;
57663;SDS011;43493;53.098;6.064;2023-08-17T12:10:24;8.63;;;2.77;;
57663;SDS011;43493;53.098;6.064;2023-08-17T12:12:52;8.67;;;2.30;;
57663;SDS011;43493;53.098;6.064;2023-08-17T12:15:18;6.13;;;1.97;;
57663;SDS011;43493;53.098;6.064;2023-08-17T12:17:47;8.03;;;2.30;;
57663;SDS011;43493;53.098;6.064;2023-08-17T12:20:17;9.57;;;2.10;;
57663;SDS011;43493;53.098;6.064;2023-08-17T12:22:45;4.53;;;1.90;;
57663;SDS011;43493;53.098;6.064;2023-08-17T12:25:11;8.23;;;2.27;;
57663;SDS011;43493;53.098;6.064;2023-08-17T12:27:37;6.07;;;1.80;;
57663;SDS011;43493;53.098;6.064;2023-08-17T12:30:03;8.40;;;2.10;;
57663;SDS011;43493;53.098;6.064;2023-08-17T12:32:29;4.20;;;1.67;;
57663;SDS011;43493;53.098;6.064;2023-08-17T12:34:54;7.30;;;2.23;;
57663;SDS011;43493;53.098;6.064;2023-08-17T12:37:20;6.63;;;2.23;;
57663;SDS011;43493;53.098;6.064;2023-08-17T12:39:49;4.80;;;2.03;;
57663;SDS011;43493;53.098;6.064;2023-08-17T12:42:15;7.50;;;2.47;;
57663;SDS011;43493;53.098;6.064;2023-08-17T12:44:41;7.60;;;2.67;;
57663;SDS011;43493;53.098;6.064;2023-08-17T12:47:07;6.57;;;2.20;;
57663;SDS011;43493;53.098;6.064;2023-08-17T12:49:33;10.17;;;2.83;;
57663;SDS011;43493;53.098;6.064;2023-08-17T12:51:59;6.03;;;2.20;;
57663;SDS011;43493;53.098;6.064;2023-08-17T12:54:24;7.40;;;2.00;;
57663;SDS011;43493;53.098;6.064;2023-08-17T12:56:50;7.17;;;2.07;;
57663;SDS011;43493;53.098;6.064;2023-08-17T12:59:16;6.47;;;2.60;;
57663;SDS011;43493;53.098;6.064;2023-08-17T13:01:41;5.93;;;2.50;;
57663;SDS011;43493;53.098;6.064;2023-08-17T13:04:07;9.40;;;2.50;;
57663;SDS011;43493;53.098;6.064;2023-08-17T13:06:33;8.30;;;2.67;;
57663;SDS011;43493;53.098;6.064;2023-08-17T13:08:58;5.77;;;1.93;;
57663;SDS011;43493;53.098;6.064;2023-08-17T13:11:24;7.53;;;2.50;;
57663;SDS011;43493;53.098;6.064;2023-08-17T13:13:50;5.53;;;1.87;;
57663;SDS011;43493;53.098;6.064;2023-08-17T13:16:15;7.67;;;2.50;;
57663;SDS011;43493;53.098;6.064;2023-08-17T13:18:41;7.53;;;2.57;;
57663;SDS011;43493;53.098;6.064;2023-08-17T13:21:07;9.90;;;3.00;;
57663;SDS011;43493;53.098;6.064;2023-08-17T13:23:33;9.90;;;2.80;;
57663;SDS011;43493;53.098;6.064;2023-08-17T13:25:59;9.53;;;2.77;;
57663;SDS011;43493;53.098;6.064;2023-08-17T13:28:24;7.80;;;2.40;;
57663;SDS011;43493;53.098;6.064;2023-08-17T13:30:50;7.13;;;2.57;;
57663;SDS011;43493;53.098;6.064;2023-08-17T13:33:16;11.30;;;2.97;;
57663;SDS011;43493;53.098;6.064;2023-08-17T13:35:42;6.73;;;2.73;;
57663;SDS011;43493;53.098;6.064;2023-08-17T13:38:08;6.57;;;2.50;;
57663;SDS011;43493;53.098;6.064;2023-08-17T13:40:34;8.03;;;2.60;;
57663;SDS011;43493;53.098;6.064;2023-08-17T13:43:01;8.67;;;2.47;;
57663;SDS011;43493;53.098;6.064;2023-08-17T13:45:28;6.43;;;2.20;;
57663;SDS011;43493;53.098;6.064;2023-08-17T13:47:54;8.47;;;3.03;;
57663;SDS011;43493;53.098;6.064;2023-08-17T13:50:19;9.73;;;2.80;;
57663;SDS011;43493;53.098;6.064;2023-08-17T13:52:45;9.33;;;2.33;;
57663;SDS011;43493;53.098;6.064;2023-08-17T13:55:12;6.50;;;2.00;;
57663;SDS011;43493;53.098;6.064;2023-08-17T13:57:37;6.43;;;2.60;;
57663;SDS011;43493;53.098;6.064;2023-08-17T14:00:03;6.20;;;2.40;;
57663;SDS011;43493;53.098;6.064;2023-08-17T14:02:29;6.77;;;2.60;;
57663;SDS011;43493;53.098;6.064;2023-08-17T14:04:56;6.73;;;2.80;;
57663;SDS011;43493;53.098;6.064;2023-08-17T14:07:22;8.40;;;2.67;;
57663;SDS011;43493;53.098;6.064;2023-08-17T14:09:48;6.90;;;2.93;;
57663;SDS011;43493;53.098;6.064;2023-08-17T14:12:13;8.80;;;2.57;;
57663;SDS011;43493;53.098;6.064;2023-08-17T14:14:39;6.80;;;3.00;;
57663;SDS011;43493;53.098;6.064;2023-08-17T14:17:05;8.77;;;2.50;;
57663;SDS011;43493;53.098;6.064;2023-08-17T14:19:30;7.33;;;2.77;;
57663;SDS011;43493;53.098;6.064;2023-08-17T14:21:56;5.27;;;2.10;;
57663;SDS011;43493;53.098;6.064;2023-08-17T14:24:24;6.63;;;2.47;;
57663;SDS011;43493;53.098;6.064;2023-08-17T14:26:50;6.83;;;2.60;;
57663;SDS011;43493;53.098;6.064;2023-08-17T14:29:15;9.43;;;2.80;;
57663;SDS011;43493;53.098;6.064;2023-08-17T14:31:41;7.97;;;2.63;;
57663;SDS011;43493;53.098;6.064;2023-08-17T14:34:07;11.00;;;2.97;;
57663;SDS011;43493;53.098;6.064;2023-08-17T14:36:33;7.83;;;2.67;;
57663;SDS011;43493;53.098;6.064;2023-08-17T14:38:58;8.43;;;3.00;;
57663;SDS011;43493;53.098;6.064;2023-08-17T14:41:24;8.63;;;2.60;;
57663;SDS011;43493;53.098;6.064;2023-08-17T14:43:56;8.00;;;3.00;;
57663;SDS011;43493;53.098;6.064;2023-08-17T14:46:23;6.93;;;2.47;;
57663;SDS011;43493;53.098;6.064;2023-08-17T14:48:50;6.77;;;2.67;;
57663;SDS011;43493;53.098;6.064;2023-08-17T14:51:15;7.70;;;3.00;;
57663;SDS011;43493;53.098;6.064;2023-08-17T14:53:41;8.97;;;3.10;;
57663;SDS011;43493;53.098;6.064;2023-08-17T14:56:07;9.93;;;2.73;;
57663;SDS011;43493;53.098;6.064;2023-08-17T14:58:32;8.60;;;3.20;;
57663;SDS011;43493;53.098;6.064;2023-08-17T15:00:58;5.90;;;2.87;;